createdAt,value
2018-04-23T00:00:54.183Z,16.7
2018-04-23T00:02:14.014Z,16.7
2018-04-23T00:03:33.836Z,16.7
2018-04-23T00:04:56.186Z,16.6
2018-04-23T00:06:23.666Z,16.5
2018-04-23T00:07:48.573Z,16.6
2018-04-23T00:09:08.422Z,16.6
2018-04-23T00:10:30.775Z,16.6
2018-04-23T00:12:00.728Z,16.6
2018-04-23T00:13:23.165Z,16.5
2018-04-23T00:14:45.516Z,16.6
2018-04-23T00:16:05.330Z,16.6
2018-04-23T00:17:25.192Z,16.6
2018-04-23T00:18:50.076Z,16.6
2018-04-23T00:20:09.936Z,16.6
2018-04-23T00:21:42.397Z,16.5
2018-04-23T00:23:04.801Z,16.5
2018-04-23T00:24:27.160Z,16.4
2018-04-23T00:25:47.030Z,16.4
2018-04-23T00:27:06.846Z,16.4
2018-04-23T00:28:29.244Z,16.4
2018-04-23T00:29:49.085Z,16.4
2018-04-23T00:31:08.903Z,16.4
2018-04-23T00:32:41.379Z,16.4
2018-04-23T00:34:16.393Z,16.4
2018-04-23T00:35:36.263Z,16.3
2018-04-23T00:36:58.650Z,16.3
2018-04-23T00:38:18.494Z,16.4
2018-04-23T00:39:40.854Z,16.3
2018-04-23T00:41:00.694Z,16.3
2018-04-23T00:42:20.529Z,16.3
2018-04-23T00:43:40.412Z,16.3
2018-04-23T00:45:00.231Z,16.2
2018-04-23T00:46:27.699Z,16.3
2018-04-23T00:47:47.600Z,16.3
2018-04-23T00:49:12.531Z,16.4
2018-04-23T00:50:37.417Z,16.3
2018-04-23T00:52:02.374Z,16.4
2018-04-23T00:53:24.796Z,16.3
2018-04-23T00:54:52.206Z,16.3
2018-04-23T00:56:14.602Z,16.4
2018-04-23T00:57:34.458Z,16.3
2018-04-23T00:58:56.833Z,16.3
2018-04-23T01:00:19.239Z,16.4
2018-04-23T01:01:39.116Z,16.3
2018-04-23T01:02:58.928Z,16.3
2018-04-23T01:04:18.737Z,16.3
2018-04-23T01:05:41.126Z,16.2
2018-04-23T01:07:06.004Z,16.1
2018-04-23T01:08:25.876Z,16.1
2018-04-23T01:09:45.714Z,16.1
2018-04-23T01:11:05.554Z,16.1
2018-04-23T01:12:27.933Z,16.1
2018-04-23T01:13:47.810Z,16
2018-04-23T01:15:10.151Z,16.1
2018-04-23T01:16:35.038Z,16
2018-04-23T01:17:54.858Z,16.1
2018-04-23T01:19:14.679Z,16
2018-04-23T01:20:34.553Z,16
2018-04-23T01:21:54.371Z,16.1
2018-04-23T01:23:24.331Z,15.9
2018-04-23T01:24:49.208Z,16.1
2018-04-23T01:26:19.162Z,16.1
2018-04-23T01:27:49.101Z,16.1
2018-04-23T01:29:21.628Z,16
2018-04-23T01:30:49.050Z,16
2018-04-23T01:32:08.875Z,16.1
2018-04-23T01:33:31.297Z,16.2
2018-04-23T01:34:51.119Z,16.1
2018-04-23T01:36:18.558Z,16.1
2018-04-23T01:37:40.905Z,16.2
2018-04-23T01:39:00.742Z,16.2
2018-04-23T01:40:23.115Z,16.3
2018-04-23T01:41:48.021Z,16.3
2018-04-23T01:43:10.425Z,16.3
2018-04-23T01:44:30.296Z,16.3
2018-04-23T01:45:52.692Z,16.3
2018-04-23T01:47:15.051Z,16.4
2018-04-23T01:48:34.901Z,16.4
2018-04-23T01:49:54.713Z,16.4
2018-04-23T01:51:17.062Z,16.4
2018-04-23T01:52:36.933Z,16.3
2018-04-23T01:54:06.863Z,16.4
2018-04-23T01:55:29.230Z,16.3
2018-04-23T01:56:59.225Z,16.3
2018-04-23T01:58:29.177Z,16.3
2018-04-23T01:59:49.022Z,16.2
2018-04-23T02:01:21.498Z,16.3
2018-04-23T02:02:46.425Z,16.3
2018-04-23T02:04:06.238Z,16.2
2018-04-23T02:05:28.589Z,16.2
2018-04-23T02:06:53.480Z,16.4
2018-04-23T02:08:18.395Z,16.4
2018-04-23T02:09:38.283Z,16.4
2018-04-23T02:10:58.171Z,16.3
2018-04-23T02:12:20.525Z,16.3
2018-04-23T02:13:42.902Z,16.3
2018-04-23T02:15:02.772Z,16.2
2018-04-23T02:16:22.662Z,16.3
2018-04-23T02:17:42.514Z,16.2
2018-04-23T02:19:04.871Z,16.7
2018-04-23T02:20:27.249Z,16.8
2018-04-23T02:21:47.067Z,16.7
2018-04-23T02:23:06.910Z,16.6
2018-04-23T02:24:26.754Z,16.5
2018-04-23T02:25:46.589Z,16.8
2018-04-23T02:27:06.408Z,16.7
2018-04-23T02:28:33.877Z,16.7
2018-04-23T02:29:58.751Z,16.8
2018-04-23T02:31:21.124Z,16.8
2018-04-23T02:32:48.567Z,16.7
2018-04-23T02:34:16.022Z,16.7
2018-04-23T02:35:35.844Z,16.7
2018-04-23T02:37:00.812Z,16.6
2018-04-23T02:38:33.294Z,16.7
2018-04-23T02:39:53.159Z,16.8
2018-04-23T02:41:18.066Z,16.8
2018-04-23T02:42:37.908Z,16.8
2018-04-23T02:44:00.276Z,16.7
2018-04-23T02:45:20.149Z,16.7
2018-04-23T02:46:39.991Z,16.6
2018-04-23T02:48:04.878Z,16.7
2018-04-23T02:49:24.697Z,16.7
2018-04-23T02:50:52.135Z,16.7
2018-04-23T02:52:11.995Z,16.8
2018-04-23T02:53:39.439Z,16.8
2018-04-23T02:55:01.845Z,16.8
2018-04-23T02:56:26.788Z,16.8
2018-04-23T02:57:51.742Z,16.8
2018-04-23T02:59:14.101Z,16.7
2018-04-23T03:00:33.926Z,16.8
2018-04-23T03:02:03.926Z,16.7
2018-04-23T03:03:28.809Z,16.8
2018-04-23T03:04:48.652Z,16.9
2018-04-23T03:06:08.475Z,16.8
2018-04-23T03:07:38.428Z,16.7
2018-04-23T03:09:00.819Z,16.6
2018-04-23T03:10:23.167Z,16.6
2018-04-23T03:11:42.982Z,16.7
2018-04-23T03:13:02.832Z,16.6
2018-04-23T03:14:22.682Z,16.6
2018-04-23T03:15:42.566Z,16.7
2018-04-23T03:17:02.452Z,16.7
2018-04-23T03:18:22.295Z,16.7
2018-04-23T03:19:49.752Z,16.6
2018-04-23T03:21:09.572Z,16.5
2018-04-23T03:22:29.385Z,16.6
2018-04-23T03:23:49.276Z,16.6
2018-04-23T03:25:09.100Z,16.7
2018-04-23T03:26:28.926Z,16.6
2018-04-23T03:27:51.269Z,16.7
2018-04-23T03:29:13.629Z,16.6
2018-04-23T03:30:33.511Z,16.6
2018-04-23T03:31:55.860Z,16.7
2018-04-23T03:33:15.692Z,16.6
2018-04-23T03:34:35.518Z,16.7
2018-04-23T03:35:57.879Z,16.6
2018-04-23T03:37:17.722Z,16.6
2018-04-23T03:38:40.078Z,16.6
2018-04-23T03:40:07.516Z,16.6
2018-04-23T03:41:29.860Z,16.7
2018-04-23T03:42:49.678Z,16.7
2018-04-23T03:44:12.099Z,16.7
2018-04-23T03:45:31.987Z,16.7
2018-04-23T03:46:54.373Z,16.7
2018-04-23T03:48:14.257Z,16.6
2018-04-23T03:49:34.094Z,16.7
2018-04-23T03:50:56.437Z,16.7
2018-04-23T03:52:18.797Z,16.7
2018-04-23T03:53:41.154Z,16.8
2018-04-23T03:55:00.987Z,16.6
2018-04-23T03:56:20.806Z,16.6
2018-04-23T03:57:43.201Z,16.7
2018-04-23T03:59:03.053Z,16.7
2018-04-23T04:00:25.398Z,16.7
2018-04-23T04:01:47.795Z,16.7
2018-04-23T04:03:15.217Z,16.6
2018-04-23T04:04:35.058Z,16.6
2018-04-23T04:05:54.882Z,16.7
2018-04-23T04:07:17.266Z,16.7
2018-04-23T04:08:37.174Z,16.7
2018-04-23T04:10:02.080Z,16.7
2018-04-23T04:11:21.935Z,16.7
2018-04-23T04:12:41.772Z,16.7
2018-04-23T04:14:01.586Z,16.6
2018-04-23T04:15:21.483Z,16.7
2018-04-23T04:16:41.358Z,16.8
2018-04-23T04:18:01.184Z,16.8
2018-04-23T04:19:21.004Z,16.8
2018-04-23T04:20:45.863Z,16.8
2018-04-23T04:22:05.693Z,16.8
2018-04-23T04:23:30.587Z,16.6
2018-04-23T04:24:52.960Z,16.7
2018-04-23T04:26:15.312Z,16.8
2018-04-23T04:27:42.769Z,16.8
2018-04-23T04:29:02.620Z,16.9
2018-04-23T04:30:27.532Z,16.7
2018-04-23T04:31:47.394Z,16.7
2018-04-23T04:33:09.793Z,16.7
2018-04-23T04:34:37.241Z,16.7
2018-04-23T04:35:59.618Z,16.6
2018-04-23T04:37:22.013Z,16.6
2018-04-23T04:38:41.859Z,16.6
2018-04-23T04:40:06.764Z,16.6
2018-04-23T04:41:26.608Z,16.6
2018-04-23T04:42:48.988Z,16.6
2018-04-23T04:44:18.990Z,16.6
2018-04-23T04:45:59.077Z,16.8
2018-04-23T04:47:18.897Z,16.9
2018-04-23T04:48:43.775Z,16.9
2018-04-23T04:50:08.694Z,16.9
2018-04-23T04:51:28.507Z,16.9
2018-04-23T04:52:48.329Z,16.9
2018-04-23T04:54:08.206Z,17
2018-04-23T04:55:28.039Z,17
2018-04-23T04:56:50.406Z,16.9
2018-04-23T04:58:10.286Z,16.9
2018-04-23T04:59:30.101Z,16.8
2018-04-23T05:00:52.501Z,16.8
2018-04-23T05:02:12.361Z,16.9
2018-04-23T05:03:32.209Z,16.9
2018-04-23T05:04:52.105Z,16.9
2018-04-23T05:06:11.952Z,16.9
2018-04-23T05:07:31.851Z,16.9
2018-04-23T05:08:51.726Z,16.9
2018-04-23T05:10:11.568Z,16.9
2018-04-23T05:11:33.967Z,17
2018-04-23T05:12:56.374Z,17
2018-04-23T05:14:16.224Z,16.9
2018-04-23T05:15:36.100Z,16.9
2018-04-23T05:16:55.965Z,16.9
2018-04-23T05:18:15.808Z,16.9
2018-04-23T05:19:35.660Z,16.9
2018-04-23T05:20:55.493Z,16.9
2018-04-23T05:22:17.832Z,16.8
2018-04-23T05:23:42.832Z,16.9
2018-04-23T05:25:02.724Z,16.9
2018-04-23T05:26:25.122Z,16.9
2018-04-23T05:27:47.477Z,17
2018-04-23T05:29:07.325Z,17
2018-04-23T05:30:27.218Z,17
2018-04-23T05:31:49.609Z,17.1
2018-04-23T05:33:09.463Z,17.1
2018-04-23T05:34:31.840Z,17
2018-04-23T05:35:59.295Z,17
2018-04-23T05:37:21.681Z,16.9
2018-04-23T05:38:41.541Z,16.9
2018-04-23T05:40:06.443Z,17
2018-04-23T05:41:26.340Z,17
2018-04-23T05:42:46.156Z,17.1
2018-04-23T05:44:06.088Z,17
2018-04-23T05:45:25.972Z,17.1
2018-04-23T05:46:45.830Z,17
2018-04-23T05:48:08.170Z,17
2018-04-23T05:49:28.001Z,17
2018-04-23T05:50:50.359Z,17.1
2018-04-23T05:52:15.230Z,17.1
2018-04-23T05:53:37.578Z,17.1
2018-04-23T05:54:57.438Z,17.1
2018-04-23T05:56:17.275Z,17.1
2018-04-23T05:57:39.641Z,17.1
2018-04-23T05:59:02.063Z,17.1
2018-04-23T06:00:21.955Z,17.1
2018-04-23T06:01:46.882Z,17.1
2018-04-23T06:03:11.819Z,17.1
2018-04-23T06:04:31.673Z,17.2
2018-04-23T06:05:51.526Z,17.2
2018-04-23T06:07:13.879Z,17.2
2018-04-23T06:08:38.769Z,17.2
2018-04-23T06:09:58.594Z,17.3
2018-04-23T06:11:18.451Z,17.2
2018-04-23T06:12:40.805Z,17.2
2018-04-23T06:14:03.152Z,17.2
2018-04-23T06:15:28.090Z,17.2
2018-04-23T06:16:47.910Z,17.3
2018-04-23T06:18:07.734Z,17.3
2018-04-23T06:19:27.566Z,17.3
2018-04-23T06:20:57.525Z,17.3
2018-04-23T06:22:17.346Z,17.3
2018-04-23T06:23:37.193Z,17.3
2018-04-23T06:24:57.042Z,17.3
2018-04-23T06:26:16.907Z,17.3
2018-04-23T06:27:36.757Z,17.4
2018-04-23T06:28:56.649Z,17.3
2018-04-23T06:30:19.059Z,17.3
2018-04-23T06:31:38.903Z,17.4
2018-04-23T06:32:58.781Z,17.4
2018-04-23T06:34:26.219Z,17.4
2018-04-23T06:35:46.058Z,17.5
2018-04-23T06:37:05.890Z,17.5
2018-04-23T06:38:30.828Z,17.5
2018-04-23T06:39:55.712Z,17.5
2018-04-23T06:41:15.589Z,17.6
2018-04-23T06:42:42.992Z,17.6
2018-04-23T06:44:02.812Z,17.6
2018-04-23T06:45:22.638Z,17.6
2018-04-23T06:46:42.462Z,17.6
2018-04-23T06:48:02.277Z,17.6
2018-04-23T06:49:22.089Z,17.6
2018-04-23T06:50:46.983Z,17.6
2018-04-23T06:52:11.938Z,17.5
2018-04-23T06:53:34.286Z,17.5
2018-04-23T06:54:56.680Z,17.5
2018-04-23T06:56:24.110Z,17.5
2018-04-23T06:57:46.480Z,17.6
2018-04-23T06:59:06.433Z,17.6
2018-04-23T07:00:33.876Z,17.6
2018-04-23T07:01:56.257Z,17.6
2018-04-23T07:03:16.161Z,17.6
2018-04-23T07:04:35.993Z,17.7
2018-04-23T07:05:58.362Z,17.7
2018-04-23T07:07:18.227Z,17.7
2018-04-23T07:08:38.044Z,17.7
2018-04-23T07:10:05.489Z,17.7
2018-04-23T07:11:32.893Z,17.8
2018-04-23T07:12:52.745Z,17.9
2018-04-23T07:14:12.620Z,17.8
2018-04-23T07:15:32.432Z,17.8
2018-04-23T07:16:52.257Z,17.8
2018-04-23T07:18:12.130Z,17.8
2018-04-23T07:19:31.947Z,17.8
2018-04-23T07:21:01.935Z,17.8
2018-04-23T07:22:26.844Z,17.8
2018-04-23T07:23:46.681Z,17.8
2018-04-23T07:25:09.077Z,17.8
2018-04-23T07:26:28.911Z,17.8
2018-04-23T07:27:48.739Z,17.9
2018-04-23T07:29:13.642Z,17.9
2018-04-23T07:30:33.455Z,17.9
2018-04-23T07:31:53.303Z,17.9
2018-04-23T07:33:28.339Z,17.9
2018-04-23T07:35:03.395Z,17.8
2018-04-23T07:36:23.229Z,17.8
2018-04-23T07:37:43.050Z,17.8
2018-04-23T07:39:02.908Z,17.9
2018-04-23T07:40:22.746Z,17.9
2018-04-23T07:41:47.688Z,18
2018-04-23T07:43:07.536Z,18
2018-04-23T07:44:27.351Z,18
2018-04-23T07:45:49.708Z,17.9
2018-04-23T07:47:14.620Z,18
2018-04-23T07:48:34.467Z,18
2018-04-23T07:50:06.987Z,18
2018-04-23T07:51:29.334Z,18
2018-04-23T07:52:49.229Z,17.9
2018-04-23T07:54:09.097Z,18
2018-04-23T07:55:28.973Z,18
2018-04-23T07:56:48.790Z,17.9
2018-04-23T07:58:08.648Z,17.9
2018-04-23T07:59:33.538Z,18
2018-04-23T08:00:53.366Z,18
2018-04-23T08:02:13.184Z,18
2018-04-23T08:03:33.026Z,18
2018-04-23T08:04:55.367Z,18
2018-04-23T08:06:17.730Z,18
2018-04-23T08:07:37.556Z,18
2018-04-23T08:08:57.414Z,18
2018-04-23T08:10:17.240Z,17.9
2018-04-23T08:11:37.069Z,17.9
2018-04-23T08:12:56.890Z,18
2018-04-23T08:14:16.711Z,18
2018-04-23T08:15:36.558Z,18
2018-04-23T08:16:56.406Z,17.9
2018-04-23T08:18:18.782Z,18
2018-04-23T08:19:46.254Z,18
2018-04-23T08:21:13.722Z,18
2018-04-23T08:22:36.143Z,18
2018-04-23T08:24:06.127Z,18
2018-04-23T08:25:33.571Z,18
2018-04-23T08:26:55.948Z,18
2018-04-23T08:28:20.867Z,18
2018-04-23T08:29:40.703Z,18
2018-04-23T08:31:00.530Z,18
2018-04-23T08:32:20.409Z,18
2018-04-23T08:33:40.221Z,18.1
2018-04-23T08:35:00.054Z,18
2018-04-23T08:36:22.430Z,18.1
2018-04-23T08:37:42.277Z,18.1
2018-04-23T08:39:12.238Z,18
2018-04-23T08:40:34.595Z,18
2018-04-23T08:41:54.421Z,18
2018-04-23T08:43:14.281Z,18
2018-04-23T08:44:34.159Z,18
2018-04-23T08:45:54.018Z,18
2018-04-23T08:47:13.838Z,18
2018-04-23T08:48:33.654Z,18
2018-04-23T08:49:56.060Z,18
2018-04-23T08:51:15.978Z,18
2018-04-23T08:52:43.433Z,17.9
2018-04-23T08:54:05.805Z,17.9
2018-04-23T08:55:25.663Z,18
2018-04-23T08:56:48.052Z,18.1
2018-04-23T08:58:10.397Z,18.1
2018-04-23T08:59:30.273Z,18.1
2018-04-23T09:01:07.807Z,18.1
2018-04-23T09:02:30.178Z,18.1
2018-04-23T09:04:05.232Z,18.1
2018-04-23T09:05:25.050Z,18.1
2018-04-23T09:06:44.898Z,18
2018-04-23T09:08:04.773Z,18.1
2018-04-23T09:09:24.596Z,18.1
2018-04-23T09:10:44.417Z,18.1
2018-04-23T09:12:09.308Z,18.1
2018-04-23T09:13:41.817Z,18.1
2018-04-23T09:15:01.639Z,18.1
2018-04-23T09:16:21.459Z,18.1
2018-04-23T09:17:41.332Z,18.1
2018-04-23T09:19:11.303Z,18.1
2018-04-23T09:20:31.161Z,18.1
2018-04-23T09:21:53.529Z,18.2
2018-04-23T09:23:18.402Z,18.1
2018-04-23T09:24:38.234Z,18.1
2018-04-23T09:25:58.070Z,18.1
2018-04-23T09:27:20.437Z,18.2
2018-04-23T09:28:45.231Z,18.2
2018-04-23T09:30:05.102Z,18.2
2018-04-23T09:31:27.447Z,18.2
2018-04-23T09:32:47.267Z,18.1
2018-04-23T09:34:07.091Z,18.2
2018-04-23T09:35:26.938Z,18.2
2018-04-23T09:36:46.758Z,18.2
2018-04-23T09:38:06.569Z,18.2
2018-04-23T09:39:26.398Z,18.2
2018-04-23T09:40:46.307Z,18.2
2018-04-23T09:42:06.162Z,18.2
2018-04-23T09:43:28.531Z,18.2
2018-04-23T09:44:48.409Z,18.2
2018-04-23T09:46:10.791Z,18.2
2018-04-23T09:47:33.141Z,18.2
2018-04-23T09:48:55.574Z,18.2
2018-04-23T09:50:15.422Z,18.2
2018-04-23T09:51:35.290Z,18.2
2018-04-23T09:52:57.645Z,18.3
2018-04-23T09:54:30.193Z,18.2
2018-04-23T09:55:57.662Z,18.3
2018-04-23T09:57:17.482Z,18.3
2018-04-23T09:58:42.448Z,18.3
2018-04-23T10:00:02.339Z,18.3
2018-04-23T10:01:24.720Z,18.3
2018-04-23T10:02:47.103Z,18.2
2018-04-23T10:04:06.931Z,18.2
2018-04-23T10:05:26.782Z,18.3
2018-04-23T10:06:49.125Z,18.3
2018-04-23T10:08:11.481Z,18.3
2018-04-23T10:09:31.304Z,18.2
2018-04-23T10:10:51.154Z,18.2
2018-04-23T10:12:21.121Z,18.3
2018-04-23T10:13:40.973Z,18.3
2018-04-23T10:15:03.371Z,18.2
2018-04-23T10:16:23.199Z,18.2
2018-04-23T10:17:43.035Z,18.2
2018-04-23T10:19:05.421Z,18.2
2018-04-23T10:20:25.277Z,18.2
2018-04-23T10:22:00.314Z,18.2
2018-04-23T10:23:20.213Z,18.2
2018-04-23T10:24:40.029Z,18.3
2018-04-23T10:25:59.950Z,18.2
2018-04-23T10:27:19.826Z,18.3
2018-04-23T10:28:39.692Z,18.3
2018-04-23T10:30:02.045Z,18.3
2018-04-23T10:31:21.936Z,18.3
2018-04-23T10:32:46.878Z,18.3
2018-04-23T10:34:21.891Z,18.3
2018-04-23T10:35:41.708Z,18.3
2018-04-23T10:37:14.191Z,18.3
2018-04-23T10:39:09.434Z,18.2
2018-04-23T10:40:31.804Z,18.3
2018-04-23T10:41:54.158Z,18.3
2018-04-23T10:43:13.978Z,18.2
2018-04-23T10:44:36.329Z,18.3
2018-04-23T10:45:56.143Z,18.3
2018-04-23T10:47:18.541Z,18.3
2018-04-23T10:48:38.361Z,18.3
2018-04-23T10:49:58.177Z,18.3
2018-04-23T10:51:20.600Z,18.3
2018-04-23T10:52:42.942Z,18.3
2018-04-23T10:54:10.383Z,18.3
2018-04-23T10:55:32.733Z,18.4
2018-04-23T10:56:52.580Z,18.3
2018-04-23T10:58:22.512Z,18.3
2018-04-23T10:59:42.335Z,18.4
2018-04-23T11:01:02.171Z,18.4
2018-04-23T11:02:21.988Z,18.4
2018-04-23T11:03:44.353Z,18.4
2018-04-23T11:05:11.777Z,18.5
2018-04-23T11:06:41.724Z,18.5
2018-04-23T11:08:06.597Z,18.5
2018-04-23T11:09:36.532Z,18.5
2018-04-23T11:11:01.427Z,18.6
2018-04-23T11:12:21.244Z,18.6
2018-04-23T11:13:41.117Z,18.6
2018-04-23T11:15:00.947Z,18.6
2018-04-23T11:16:20.839Z,18.6
2018-04-23T11:17:55.868Z,18.7
2018-04-23T11:19:15.745Z,18.7
2018-04-23T11:20:35.590Z,18.7
2018-04-23T11:21:55.444Z,18.7
2018-04-23T11:23:17.788Z,18.8
2018-04-23T11:24:42.670Z,18.8
2018-04-23T11:26:05.059Z,18.8
2018-04-23T11:27:24.903Z,18.8
2018-04-23T11:28:52.308Z,18.8
2018-04-23T11:30:17.240Z,18.9
2018-04-23T11:31:49.718Z,18.9
2018-04-23T11:33:09.593Z,18.9
2018-04-23T11:34:29.449Z,18.8
2018-04-23T11:35:51.806Z,18.8
2018-04-23T11:37:11.636Z,18.8
2018-04-23T11:38:31.506Z,18.8
2018-04-23T11:39:51.338Z,18.8
2018-04-23T11:41:13.760Z,18.9
2018-04-23T11:42:33.614Z,18.9
2018-04-23T11:43:53.429Z,18.9
2018-04-23T11:45:13.355Z,18.9
2018-04-23T11:46:35.762Z,19
2018-04-23T11:47:55.617Z,19
2018-04-23T11:49:25.603Z,19.1
2018-04-23T11:50:53.056Z,19.1
2018-04-23T11:52:12.910Z,19.2
2018-04-23T11:53:35.293Z,19.2
2018-04-23T11:54:57.681Z,19.3
2018-04-23T11:56:17.504Z,19.3
2018-04-23T11:57:37.365Z,19.4
2018-04-23T11:58:57.182Z,19.5
2018-04-23T12:00:19.528Z,19.6
2018-04-23T12:01:39.373Z,19.7
2018-04-23T12:03:01.767Z,19.7
2018-04-23T12:04:21.589Z,19.7
2018-04-23T12:05:41.440Z,19.7
2018-04-23T12:07:03.844Z,19.7
2018-04-23T12:08:26.201Z,19.7
2018-04-23T12:09:51.095Z,19.7
2018-04-23T12:11:13.441Z,19.7
2018-04-23T12:12:35.804Z,19.7
2018-04-23T12:13:58.200Z,19.7
2018-04-23T12:15:20.608Z,19.7
2018-04-23T12:16:42.962Z,19.7
2018-04-23T12:18:07.884Z,19.7
2018-04-23T12:19:30.267Z,19.7
2018-04-23T12:21:00.280Z,19.7
2018-04-23T12:22:25.221Z,19.7
2018-04-23T12:23:45.072Z,19.7
2018-04-23T12:25:04.948Z,19.7
2018-04-23T12:26:24.856Z,19.7
2018-04-23T12:27:44.689Z,19.7
2018-04-23T12:29:07.037Z,19.7
2018-04-23T12:30:31.919Z,19.8
2018-04-23T12:31:54.270Z,19.9
2018-04-23T12:33:14.145Z,20
2018-04-23T12:34:36.494Z,20
2018-04-23T12:35:58.863Z,20.2
2018-04-23T12:37:23.744Z,20.3
2018-04-23T12:38:43.569Z,20.5
2018-04-23T12:40:03.425Z,20.4
2018-04-23T12:41:30.842Z,20.4
2018-04-23T12:42:53.210Z,20.4
2018-04-23T12:44:23.153Z,20.6
2018-04-23T12:45:48.025Z,20.7
2018-04-23T12:47:07.841Z,20.7
2018-04-23T12:48:27.677Z,20.7
2018-04-23T12:49:50.112Z,20.8
2018-04-23T12:51:09.990Z,20.8
2018-04-23T12:52:39.963Z,20.8
2018-04-23T12:54:02.310Z,20.9
2018-04-23T12:55:22.137Z,20.9
2018-04-23T12:56:52.141Z,20.9
2018-04-23T12:58:17.011Z,21
2018-04-23T12:59:36.823Z,21.1
2018-04-23T13:00:56.644Z,21.1
2018-04-23T13:02:16.462Z,21
2018-04-23T13:03:41.354Z,21
2018-04-23T13:05:01.189Z,20.9
2018-04-23T13:06:23.541Z,20.8
2018-04-23T13:07:43.360Z,20.8
2018-04-23T13:09:23.424Z,20.9
2018-04-23T13:10:43.262Z,20.8
2018-04-23T13:12:08.178Z,20.9
2018-04-23T13:13:40.636Z,21.2
2018-04-23T13:15:00.468Z,21.3
2018-04-23T13:16:20.341Z,21.3
2018-04-23T13:17:40.187Z,21.3
2018-04-23T13:19:05.151Z,21.4
2018-04-23T13:20:27.500Z,21.7
2018-04-23T13:21:52.407Z,21.6
2018-04-23T13:23:17.310Z,21.6
2018-04-23T13:24:37.149Z,21.9
2018-04-23T13:25:57.014Z,21.8
2018-04-23T13:27:16.837Z,21.7
2018-04-23T13:28:36.701Z,21.7
2018-04-23T13:29:59.065Z,21.7
2018-04-23T13:31:21.423Z,21.5
2018-04-23T13:32:41.265Z,21.6
2018-04-23T13:34:03.624Z,21.6
2018-04-23T13:35:23.492Z,21.8
2018-04-23T13:36:43.332Z,21.8
2018-04-23T13:38:05.693Z,21.7
2018-04-23T13:39:25.530Z,21.5
2018-04-23T13:40:47.923Z,21.7
2018-04-23T13:42:07.740Z,21.8
2018-04-23T13:43:32.626Z,21.8
2018-04-23T13:44:57.498Z,21.8
2018-04-23T13:46:24.972Z,21.9
2018-04-23T13:47:47.329Z,22.1
2018-04-23T13:49:07.191Z,22.1
2018-04-23T13:50:27.020Z,22
2018-04-23T13:51:46.852Z,21.9
2018-04-23T13:53:06.674Z,21.7
2018-04-23T13:54:26.494Z,21.6
2018-04-23T13:55:46.353Z,21.5
2018-04-23T13:57:06.170Z,21.4
2018-04-23T13:58:26.000Z,21.3
2018-04-23T13:59:45.822Z,21.3
2018-04-23T14:01:08.170Z,21.3
2018-04-23T14:02:33.066Z,21.2
2018-04-23T14:03:52.948Z,21.2
2018-04-23T14:05:12.776Z,21.2
2018-04-23T14:06:35.177Z,21.3
2018-04-23T14:07:57.532Z,21.2
2018-04-23T14:09:17.349Z,21.3
2018-04-23T14:10:37.201Z,21.3
2018-04-23T14:11:57.057Z,21.3
2018-04-23T14:13:16.920Z,21.3
2018-04-23T14:14:36.747Z,21.2
2018-04-23T14:15:59.127Z,21.2
2018-04-23T14:17:21.531Z,21.2
2018-04-23T14:18:43.948Z,21.1
2018-04-23T14:20:03.819Z,21.2
2018-04-23T14:21:28.698Z,21.1
2018-04-23T14:22:48.526Z,21.1
2018-04-23T14:24:18.472Z,21.1
2018-04-23T14:25:45.887Z,21.1
2018-04-23T14:27:05.758Z,21
2018-04-23T14:28:25.631Z,21
2018-04-23T14:29:48.026Z,21
2018-04-23T14:31:10.408Z,20.9
2018-04-23T14:32:32.769Z,20.9
2018-04-23T14:33:52.633Z,20.9
2018-04-23T14:35:12.450Z,20.9
2018-04-23T14:36:42.425Z,20.8
2018-04-23T14:38:02.248Z,20.8
2018-04-23T14:39:22.116Z,20.7
2018-04-23T14:40:41.949Z,20.7
2018-04-23T14:42:06.857Z,20.7
2018-04-23T14:43:34.298Z,20.7
2018-04-23T14:44:54.136Z,20.6
2018-04-23T14:46:13.992Z,20.6
2018-04-23T14:47:36.403Z,20.5
2018-04-23T14:48:56.274Z,20.6
2018-04-23T14:50:16.092Z,20.6
2018-04-23T14:51:38.499Z,20.6
2018-04-23T14:52:58.321Z,20.6
2018-04-23T14:54:35.883Z,20.6
2018-04-23T14:56:03.346Z,20.6
2018-04-23T14:57:28.249Z,20.6
2018-04-23T14:58:48.071Z,20.6
2018-04-23T15:00:07.912Z,20.6
2018-04-23T15:01:35.339Z,20.4
2018-04-23T15:02:55.161Z,20.4
2018-04-23T15:04:15.008Z,20.4
2018-04-23T15:05:37.353Z,20.3
2018-04-23T15:06:59.722Z,20.3
2018-04-23T15:08:29.714Z,20.2
2018-04-23T15:09:54.622Z,20.2
2018-04-23T15:11:14.527Z,20.2
2018-04-23T15:12:34.439Z,20.2
2018-04-23T15:13:56.780Z,20.2
2018-04-23T15:15:16.646Z,20.1
2018-04-23T15:16:41.573Z,20.1
2018-04-23T15:18:01.440Z,20.1
2018-04-23T15:19:21.315Z,20.1
2018-04-23T15:20:53.792Z,20
2018-04-23T15:22:18.747Z,20.1
2018-04-23T15:23:48.733Z,20.1
2018-04-23T15:25:08.604Z,20.1
2018-04-23T15:26:36.015Z,20.1
2018-04-23T15:28:08.491Z,20.1
2018-04-23T15:29:28.346Z,20
2018-04-23T15:30:48.172Z,20
2018-04-23T15:32:08.010Z,20
2018-04-23T15:33:27.837Z,20
2018-04-23T15:34:47.681Z,20
2018-04-23T15:36:07.508Z,19.9
2018-04-23T15:37:34.946Z,19.9
2018-04-23T15:38:57.332Z,19.9
2018-04-23T15:40:17.153Z,19.9
2018-04-23T15:41:37.016Z,19.9
2018-04-23T15:43:06.956Z,20
2018-04-23T15:44:39.464Z,20
2018-04-23T15:46:01.837Z,20
2018-04-23T15:47:21.669Z,19.9
2018-04-23T15:48:44.066Z,19.9
2018-04-23T15:50:11.478Z,20
2018-04-23T15:51:31.311Z,20
2018-04-23T15:52:58.732Z,19.9
2018-04-23T15:54:18.632Z,20
2018-04-23T15:55:38.477Z,20
2018-04-23T15:56:58.294Z,19.9
2018-04-23T15:58:18.121Z,20
2018-04-23T15:59:37.947Z,20
2018-04-23T16:00:57.789Z,19.9
2018-04-23T16:02:22.720Z,20
2018-04-23T16:03:42.557Z,20
2018-04-23T16:05:02.414Z,20
2018-04-23T16:06:22.257Z,19.9
2018-04-23T16:07:44.642Z,19.9
2018-04-23T16:09:06.984Z,19.9
2018-04-23T16:10:26.908Z,19.9
2018-04-23T16:11:49.286Z,19.9
2018-04-23T16:13:09.175Z,19.8
2018-04-23T16:14:29.047Z,19.8
2018-04-23T16:15:48.896Z,19.8
2018-04-23T16:17:08.738Z,19.8
2018-04-23T16:18:28.664Z,19.8
2018-04-23T16:19:53.569Z,19.8
2018-04-23T16:21:13.470Z,19.9
2018-04-23T16:22:33.297Z,19.9
2018-04-23T16:23:53.168Z,19.9
2018-04-23T16:25:12.981Z,19.9
2018-04-23T16:26:32.840Z,19.9
2018-04-23T16:27:52.676Z,19.9
2018-04-23T16:29:17.543Z,19.9
2018-04-23T16:30:50.085Z,19.9
2018-04-23T16:32:12.448Z,19.9
2018-04-23T16:33:32.320Z,19.9
2018-04-23T16:34:54.670Z,19.9
2018-04-23T16:36:24.641Z,19.9
2018-04-23T16:37:52.106Z,19.9
2018-04-23T16:39:24.612Z,21.5
2018-04-23T16:40:46.900Z,20.6
2018-04-23T16:42:06.797Z,20.5
2018-04-23T16:44:39.416Z,20.4
2018-04-23T16:45:59.430Z,20.3
2018-04-23T16:47:21.818Z,20.2
2018-04-23T16:48:41.679Z,20.1
2018-04-23T16:50:01.543Z,20.2
2018-04-23T16:51:31.534Z,20.1
2018-04-23T16:52:53.896Z,20.1
2018-04-23T16:54:13.792Z,20
2018-04-23T16:55:38.708Z,20
2018-04-23T16:57:01.168Z,20
2018-04-23T16:58:21.030Z,20
2018-04-23T17:00:01.271Z,19.9
2018-04-23T17:01:23.649Z,19.9
2018-04-23T17:02:43.566Z,19.9
2018-04-23T17:04:03.435Z,19.8
2018-04-23T17:05:30.902Z,19.8
2018-04-23T17:06:50.830Z,19.8
2018-04-23T17:08:13.198Z,19.8
2018-04-23T17:09:35.673Z,19.8
2018-04-23T17:10:58.081Z,19.7
2018-04-23T17:12:28.061Z,19.8
2018-04-23T17:13:47.954Z,19.8
2018-04-23T17:15:10.346Z,19.7
2018-04-23T17:16:32.706Z,19.7
2018-04-23T17:17:55.119Z,19.7
2018-04-23T17:19:14.963Z,19.7
2018-04-23T17:20:39.946Z,19.7
2018-04-23T17:21:59.890Z,19.7
2018-04-23T17:23:29.910Z,19.7
2018-04-23T17:24:49.852Z,19.6
2018-04-23T17:26:14.812Z,19.6
2018-04-23T17:27:37.241Z,19.6
2018-04-23T17:28:57.089Z,19.6
2018-04-23T17:30:19.458Z,19.6
2018-04-23T17:31:57.005Z,19.4
2018-04-23T17:33:16.863Z,19.4
2018-04-23T17:34:44.332Z,19.4
2018-04-23T17:36:04.216Z,19.4
2018-04-23T17:37:29.119Z,19.4
2018-04-23T17:38:59.065Z,19.4
2018-04-23T17:40:31.597Z,19.4
2018-04-23T17:41:53.978Z,19.4
2018-04-23T17:43:16.383Z,19.4
2018-04-23T17:44:41.380Z,19.3
2018-04-23T17:46:06.278Z,19.4
2018-04-23T17:47:26.118Z,19.3
2018-04-23T17:48:45.982Z,19.3
2018-04-23T17:50:08.355Z,19.3
2018-04-23T17:51:28.254Z,19.3
2018-04-23T17:52:48.109Z,19.3
2018-04-23T17:54:10.515Z,19.3
2018-04-23T17:55:32.928Z,19.2
2018-04-23T17:56:52.779Z,19.2
2018-04-23T17:58:12.618Z,19.2
2018-04-23T17:59:32.458Z,19.2
2018-04-23T18:00:52.338Z,19.2
2018-04-23T18:02:14.736Z,19.2
2018-04-23T18:03:37.204Z,19.2
2018-04-23T18:04:57.021Z,19.2
2018-04-23T18:06:19.386Z,19.2
2018-04-23T18:07:39.220Z,19.2
2018-04-23T18:09:14.247Z,19.2
2018-04-23T18:10:34.080Z,19.1
2018-04-23T18:11:59.019Z,19.2
2018-04-23T18:13:18.710Z,19.1
2018-04-23T18:14:38.375Z,19.1
2018-04-23T18:15:58.213Z,19.1
2018-04-23T18:17:30.838Z,19.1
2018-04-23T18:18:50.715Z,19.2
2018-04-23T18:20:13.132Z,19.2
2018-04-23T18:21:33.031Z,19.2
2018-04-23T18:22:55.435Z,19.2
2018-04-23T18:24:17.858Z,19.2
2018-04-23T18:25:37.762Z,19.2
2018-04-23T18:26:57.613Z,19.2
2018-04-23T18:28:17.498Z,19.2